Estación de San Diego
Ultimos registro cada 15 minutos 93
| N° | Estación | Fecha / Hora | Temperatura | Humedad | Lluvia | Velocidad | Dirección | Radiación | Presion |
| 93 | San Diego | 03-05-2026 23:15 | 6,3 | 84 | 0 | 0 | 292 | 0 | 1017,1 |
| 92 | San Diego | 03-05-2026 23:00 | 6,6 | 85 | 0 | 0 | 154 | 0 | 1016,9 |
| 91 | San Diego | 03-05-2026 22:45 | 6,9 | 84 | 0 | 0 | 154 | 0 | 1016,9 |
| 90 | San Diego | 03-05-2026 22:30 | 7,3 | 84 | 0 | 0 | 154 | 0 | 1017,1 |
| 89 | San Diego | 03-05-2026 22:15 | 7,9 | 82 | 0 | 0 | 154 | 0 | 1017,1 |
| 88 | San Diego | 03-05-2026 22:00 | 8,5 | 80 | 0 | 0 | 154 | 0 | 1017,2 |
| 87 | San Diego | 03-05-2026 21:45 | 8,8 | 81 | 0 | 0 | 154 | 0 | 1016,9 |
| 86 | San Diego | 03-05-2026 21:30 | 9,2 | 80 | 0 | 0 | 154 | 0 | 1017,2 |
| 85 | San Diego | 03-05-2026 21:15 | 9,7 | 78 | 0 | 0 | 154 | 0 | 1017,3 |
| 84 | San Diego | 03-05-2026 21:00 | 9,3 | 79 | 0 | 0 | 186 | 0 | 1017,3 |
| 83 | San Diego | 03-05-2026 20:45 | 9,3 | 77 | 0 | 0 | 347 | 0 | 1016,9 |
| 82 | San Diego | 03-05-2026 20:30 | 9,6 | 79 | 0 | 0,4 | 127 | 0 | 1017,1 |
| 81 | San Diego | 03-05-2026 20:15 | 9,8 | 79 | 0 | 0 | 154 | 0 | 1017,1 |
| 80 | San Diego | 03-05-2026 20:00 | 10,2 | 79 | 0 | 0 | 84 | 0 | 1016,8 |
| 79 | San Diego | 03-05-2026 19:45 | 10,9 | 76 | 0 | 0 | 15 | 0 | 1016,8 |
| 78 | San Diego | 03-05-2026 19:30 | 11,9 | 72 | 0 | 0 | 15 | 0 | 1016,8 |
| 77 | San Diego | 03-05-2026 19:15 | 13,1 | 67 | 0 | 0 | 15 | 0 | 1016,6 |
| 76 | San Diego | 03-05-2026 19:00 | 13,8 | 64 | 0 | 0 | 15 | 0 | 1016,3 |
| 75 | San Diego | 03-05-2026 18:45 | 14,1 | 62 | 0 | 0 | 328 | 0 | 1016,5 |
| 74 | San Diego | 03-05-2026 18:30 | 15,1 | 58 | 0 | 0 | 24 | 0 | 1016,1 |
| 73 | San Diego | 03-05-2026 18:15 | 16,8 | 53 | 0 | 0,9 | 357 | 0 | 1016 |
| 72 | San Diego | 03-05-2026 18:00 | 18,4 | 46 | 0 | 0 | 346 | 5 | 1016 |
| 71 | San Diego | 03-05-2026 17:45 | 19,6 | 41 | 0 | 0 | 343 | 12 | 1016 |
| 70 | San Diego | 03-05-2026 17:30 | 20,4 | 37 | 0 | 0,4 | 5 | 28 | 1015,5 |
| 69 | San Diego | 03-05-2026 17:15 | 21,3 | 38 | 0 | 0 | 312 | 35 | 1015,4 |
| 68 | San Diego | 03-05-2026 17:00 | 22,1 | 35 | 0 | 0 | 336 | 51 | 1015,2 |
| 67 | San Diego | 03-05-2026 16:45 | 23 | 28 | 0 | 0 | 243 | 56 | 1014,9 |
| 66 | San Diego | 03-05-2026 16:30 | 23,5 | 30 | 0 | 0,4 | 226 | 95 | 1014,9 |
| 65 | San Diego | 03-05-2026 16:15 | 24,4 | 32 | 0 | 1,8 | 273 | 141 | 1015 |
| 64 | San Diego | 03-05-2026 16:00 | 25,2 | 30 | 0 | 2,2 | 217 | 188 | 1014,9 |
| 63 | San Diego | 03-05-2026 15:45 | 25,1 | 31 | 0 | 0,9 | 210 | 237 | 1015 |
| 62 | San Diego | 03-05-2026 15:30 | 25,4 | 32 | 0 | 1,8 | 191 | 229 | 1014,8 |
| 61 | San Diego | 03-05-2026 15:15 | 25,8 | 35 | 0 | 1,8 | 216 | 552 | 1014,7 |
| 60 | San Diego | 03-05-2026 15:00 | 26,5 | 29 | 0 | 2,2 | 176 | 339 | 1014,5 |
| 59 | San Diego | 03-05-2026 14:45 | 27,4 | 17 | 0 | 0 | 111 | 478 | 1014,5 |
| 58 | San Diego | 03-05-2026 14:30 | 27,2 | 18 | 0 | 0,9 | 293 | 323 | 1014,4 |
| 57 | San Diego | 03-05-2026 14:15 | 26,6 | 22 | 0 | 0 | 193 | 536 | 1014,7 |
| 56 | San Diego | 03-05-2026 14:00 | 26,4 | 24 | 0 | 0,9 | 240 | 545 | 1014,9 |
| 55 | San Diego | 03-05-2026 13:45 | 26 | 24 | 0 | 0,4 | 171 | 436 | 1015 |
| 54 | San Diego | 03-05-2026 13:30 | 25,5 | 27 | 0 | 1,3 | 164 | 582 | 1015,1 |
| 53 | San Diego | 03-05-2026 13:15 | 24,8 | 36 | 0 | 2,7 | 182 | 582 | 1015,4 |
| 52 | San Diego | 03-05-2026 13:00 | 23,9 | 43 | 0 | 0,4 | 135 | 591 | 1015,6 |
| 51 | San Diego | 03-05-2026 12:45 | 22,7 | 49 | 0 | 0 | 137 | 589 | 1015,6 |
| 50 | San Diego | 03-05-2026 12:15 | 21,9 | 53 | 0 | 0 | 38 | 584 | 1016,1 |
| 49 | San Diego | 03-05-2026 12:00 | 21,1 | 54 | 0 | 0,4 | 101 | 573 | 1016,3 |
| 48 | San Diego | 03-05-2026 11:45 | 20,3 | 56 | 0 | 0,4 | 188 | 561 | 1016,6 |
| 47 | San Diego | 03-05-2026 11:30 | 19,6 | 58 | 0 | 0,4 | 154 | 545 | 1016,7 |
| 46 | San Diego | 03-05-2026 11:15 | 18,8 | 61 | 0 | 0 | 146 | 529 | 1016,9 |
| 45 | San Diego | 03-05-2026 11:00 | 18,2 | 59 | 0 | 0,9 | 122 | 510 | 1017,1 |
| 44 | San Diego | 03-05-2026 10:45 | 17,4 | 63 | 0 | 0 | 348 | 487 | 1017 |
| 43 | San Diego | 03-05-2026 10:30 | 16,1 | 66 | 0 | 0,9 | 355 | 462 | 1017,2 |
| 42 | San Diego | 03-05-2026 10:15 | 14,8 | 71 | 0 | 0 | 345 | 418 | 1017,1 |
| 41 | San Diego | 03-05-2026 10:00 | 13,7 | 73 | 0 | 0,9 | 4 | 397 | 1017,3 |
| 40 | San Diego | 03-05-2026 09:45 | 12,8 | 77 | 0 | 0,4 | 328 | 366 | 1017,3 |
| 39 | San Diego | 03-05-2026 09:30 | 11,1 | 83 | 0 | 0,9 | 345 | 327 | 1017,6 |
| 38 | San Diego | 03-05-2026 09:15 | 10,1 | 84 | 0 | 0,4 | 346 | 287 | 1017,4 |
| 37 | San Diego | 03-05-2026 09:00 | 9 | 88 | 0 | 0 | 1 | 246 | 1017,4 |
| 36 | San Diego | 03-05-2026 08:45 | 7,7 | 93 | 0 | 0,9 | 349 | 207 | 1017,1 |
| 35 | San Diego | 03-05-2026 08:30 | 6,1 | 95 | 0 | 0 | 332 | 163 | 1017 |
| 34 | San Diego | 03-05-2026 08:15 | 5,1 | 96 | 0 | 0 | 309 | 23 | 1016,6 |
| 33 | San Diego | 03-05-2026 08:00 | 3,7 | 95 | 0 | 0 | 309 | 70 | 1016,4 |
| 32 | San Diego | 03-05-2026 07:45 | 2,9 | 95 | 0 | 0 | 293 | 16 | 1016,1 |
| 31 | San Diego | 03-05-2026 07:30 | 2,3 | 94 | 0 | 0 | 344 | 11 | 1015,9 |
| 30 | San Diego | 03-05-2026 07:15 | 2,2 | 95 | 0 | 0 | 344 | 0 | 1015,8 |
| 29 | San Diego | 03-05-2026 07:00 | 1,9 | 93 | 0,2 | 0 | 344 | 0 | 1015,6 |
| 28 | San Diego | 03-05-2026 06:45 | 2,2 | 94 | 0 | 0 | 349 | 0 | 1015,6 |
| 27 | San Diego | 03-05-2026 06:30 | 2,4 | 93 | 0 | 0 | 349 | 0 | 1015,3 |
| 26 | San Diego | 03-05-2026 06:15 | 2,6 | 93 | 0 | 0 | 6 | 0 | 1015,3 |
| 25 | San Diego | 03-05-2026 06:00 | 2,7 | 93 | 0 | 0 | 6 | 0 | 1015,2 |
| 24 | San Diego | 03-05-2026 05:45 | 3,1 | 93 | 0 | 0 | 6 | 0 | 1015,3 |
| 23 | San Diego | 03-05-2026 05:30 | 3,1 | 94 | 0 | 0 | 307 | 0 | 1015,6 |
| 22 | San Diego | 03-05-2026 05:15 | 3,3 | 92 | 0 | 0 | 307 | 0 | 1015,5 |
| 21 | San Diego | 03-05-2026 05:00 | 3,7 | 93 | 0 | 0 | 307 | 0 | 1015,6 |
| 20 | San Diego | 03-05-2026 04:45 | 3,8 | 93 | 0 | 0 | 307 | 0 | 1015,7 |
| 19 | San Diego | 03-05-2026 04:30 | 3,8 | 93 | 0 | 0 | 307 | 0 | 1015,9 |
| 18 | San Diego | 03-05-2026 04:15 | 3,9 | 94 | 0 | 0 | 307 | 0 | 1015,5 |
| 17 | San Diego | 03-05-2026 04:00 | 3,6 | 93 | 0 | 0 | 324 | 0 | 1015,4 |
| 16 | San Diego | 03-05-2026 03:45 | 3,8 | 92 | 0 | 0 | 293 | 0 | 1015,5 |
| 15 | San Diego | 03-05-2026 03:30 | 4,2 | 92 | 0 | 0 | 293 | 0 | 1015,5 |
| 14 | San Diego | 03-05-2026 03:15 | 4,3 | 92 | 0 | 0 | 289 | 0 | 1015,7 |
| 13 | San Diego | 03-05-2026 03:00 | 4,9 | 91 | 0 | 0,4 | 289 | 0 | 1015,9 |
| 12 | San Diego | 03-05-2026 02:45 | 5,2 | 93 | 0 | 0 | 289 | 0 | 1016,1 |
| 11 | San Diego | 03-05-2026 02:30 | 5,1 | 92 | 0 | 0 | 237 | 0 | 1016,1 |
| 10 | San Diego | 03-05-2026 02:15 | 5,1 | 92 | 0 | 0 | 237 | 0 | 1016,3 |
| 9 | San Diego | 03-05-2026 02:00 | 5,2 | 92 | 0 | 0 | 237 | 0 | 1016,1 |
| 8 | San Diego | 03-05-2026 01:45 | 5,1 | 89 | 0 | 0 | 300 | 0 | 1016,1 |
| 7 | San Diego | 03-05-2026 01:30 | 5,7 | 89 | 0 | 0 | 265 | 0 | 1016 |
| 6 | San Diego | 03-05-2026 01:15 | 6,1 | 90 | 0 | 0 | 265 | 0 | 1016,2 |
| 5 | San Diego | 03-05-2026 01:00 | 6 | 91 | 0 | 0 | 248 | 0 | 1016 |
| 4 | San Diego | 03-05-2026 00:45 | 6,2 | 91 | 0 | 0 | 297 | 0 | 1015,9 |
| 3 | San Diego | 03-05-2026 00:30 | 6,3 | 92 | 0 | 0 | 297 | 0 | 1016 |
| 2 | San Diego | 03-05-2026 00:15 | 6,1 | 91 | 0 | 0 | 271 | 0 | 1016,1 |
| 1 | San Diego | 03-05-2026 00:00 | 6,3 | 91 | 0 | 0 | 271 | 0 | 1015,8 |